• Join FlightAware (Why Join?)
  • Login
  • US Flag 
01:57AM EDT


 

Airport Tracker/Info


-or-


 

Live Flight TrackerFlight Track Log ✈ N6855V ✈ 23-Jun-2013 ✈ KEUG - S33

Flight Track Log - Related Links

Times and Time Zones

All times are in EDT time to prevent confusion due to time zone crossing. See the N6855V flight status page for this flight to view local times or setup timezone preferences in your user account.

Time Position Orientation Groundspeed Altitude Reporting Facility
EDT Latitude Longitude Course Direction KTS MPH feet Rate Location/Type
12:16AM 44.0744 -123.1217 76° East 117 135 4,000  Level Seattle Center
12:17AM 44.0817 -123.0794 77° East 114 131 4,700 720 Climbing Seattle Center
12:18AM 44.1133 -123.0617 22° Northeast 126 145 5,500 720 Climbing Seattle Center
12:19AM 44.1882 -122.9259 74° East  Level FlightAware Approximate
12:19AM 44.1428 -123.0358 32° Northeast 126 145 6,200  Level Seattle Center
12:20AM 44.1987 -122.8734 74° East  Level FlightAware Approximate
12:20AM 44.1669 -122.9997 47° Northeast 127 146 6,700  Level Seattle Center
12:21AM 44.2166 -122.8251 61° Northeast  Level FlightAware Approximate
12:21AM 44.1900 -122.9619 50° Northeast 128 147 7,400  Level Seattle Center
12:22AM 44.2058 -122.9194 63° Northeast 125 144 7,900 540 Climbing Seattle Center
12:23AM 44.2189 -122.8750 68° East 126 145 8,500 480 Climbing Seattle Center
12:24AM 44.2297 -122.8311 71° East 122 140 8,900 420 Climbing Seattle Center
12:25AM 44.2428 -122.7806 70° East 117 135 9,400 480 Climbing Seattle Center
12:26AM 44.2547 -122.7364 69° East 121 139 9,900 360 Climbing Seattle Center
12:27AM 44.2675 -122.6897 69° East 128 147 10,200 360 Climbing Seattle Center
12:28AM 44.2769 -122.6433 74° East 125 144 10,700 420 Climbing Seattle Center
12:29AM 44.2900 -122.5972 68° East 127 146 11,100 240 Climbing Seattle Center
12:30AM 44.3025 -122.5478 71° East 135 155 11,300  Climbing Seattle Center
12:31AM 44.3178 -122.4900 70° East 157 181 11,200 -60 Descending Seattle Center
12:32AM 44.3325 -122.4306 71° East 162 186 11,200 -60 Level Seattle Center
12:33AM 44.3425 -122.3697 77° East 161 185 11,100 -60 Descending Seattle Center
12:34AM 44.3597 -122.3117 67° East 163 188 11,100  Level Seattle Center
12:35AM 44.3744 -122.2561 70° East 155 178 11,100  Level Seattle Center
12:36AM 44.3942 -122.2025 63° Northeast 155 178 11,100  Level Seattle Center
12:37AM 44.4117 -122.1419 68° East 165 190 11,100  Level Seattle Center
12:38AM 44.4317 -122.0892 62° Northeast 157 181 11,100  Level Seattle Center
12:39AM 44.4444 -122.0375 71° East 142 163 11,100  Level Seattle Center
12:40AM 44.4536 -121.9836 77° East 143 165 11,100  Level Seattle Center
12:41AM 44.4728 -121.9317 63° Northeast 148 170 11,200  Climbing Seattle Center
12:42AM 44.4864 -121.8672 73° East 151 174 11,100 -120 Descending Seattle Center
12:43AM 44.5003 -121.8158 69° East 142 163 11,000  Descending Seattle Center
12:44AM 44.5119 -121.7628 73° East 142 163 11,100 60 Climbing Seattle Center
12:45AM 44.5261 -121.7133 68° East 137 158 11,200 -300 Climbing Seattle Center
12:46AM 44.5311 -121.6617 82° East 132 152 10,600 -540 Descending Seattle Center
12:48AM 44.5478 -121.6119 65° Northeast 139 160 10,200 -480 Descending Seattle Center
12:49AM 44.5622 -121.5617 68° East 141 162 9,700 -600 Descending Seattle Center
12:50AM 44.5753 -121.5128 69° East 138 159 9,100 -780 Descending Seattle Center
12:51AM 44.5900 -121.4569 70° East 150 173 8,200 -840 Descending Seattle Center
12:52AM 44.6028 -121.3922 74° East 162 186 7,400 -840 Descending Seattle Center